createdAt,value
2023-12-08T00:01:19.050Z,91734.06
2023-12-08T00:03:47.619Z,91749.03
2023-12-08T00:06:16.423Z,91748.94
2023-12-08T00:08:45.108Z,91749.03
2023-12-08T00:11:15.325Z,91749.44
2023-12-08T00:13:45.783Z,91730.47
2023-12-08T00:16:14.483Z,91728.53
2023-12-08T00:18:43.195Z,91735.94
2023-12-08T00:21:12.550Z,91733.28
2023-12-08T00:23:41.254Z,91700.03
2023-12-08T00:26:09.848Z,91731.13
2023-12-08T00:28:40.005Z,91724.19
2023-12-08T00:31:08.688Z,91729.75
2023-12-08T00:33:37.381Z,91737.19
2023-12-08T00:36:14.551Z,91731.22
2023-12-08T00:38:43.168Z,91730.88
2023-12-08T00:41:12.021Z,91738.22
2023-12-08T00:43:41.971Z,91733.63
2023-12-08T00:46:11.109Z,91726.34
2023-12-08T00:48:39.830Z,91715.53
2023-12-08T00:51:09.312Z,91717.34
2023-12-08T00:53:37.950Z,91725.19
2023-12-08T00:56:08.166Z,91727.06
2023-12-08T00:58:36.844Z,91727.66
2023-12-08T01:01:07.775Z,91721.19
2023-12-08T01:03:36.724Z,91726.56
2023-12-08T01:06:05.892Z,91728.09
2023-12-08T01:08:34.464Z,91733.53
2023-12-08T01:11:03.040Z,91737.84
2023-12-08T01:13:31.622Z,91723.16
2023-12-08T01:16:00.212Z,91721.72
2023-12-08T01:18:30.435Z,91720.25
2023-12-08T01:20:59.427Z,91721.34
2023-12-08T01:23:28.273Z,91715.53
2023-12-08T01:25:56.823Z,91710.31
2023-12-08T01:28:25.403Z,91705.78
2023-12-08T01:30:53.959Z,91715.31
2023-12-08T01:33:22.724Z,91709.22
2023-12-08T01:36:37.166Z,91702.69
2023-12-08T01:38:41.617Z,91697.38
2023-12-08T01:41:10.195Z,91710.16
2023-12-08T01:43:38.739Z,91704.44
2023-12-08T01:46:07.674Z,91710.94
2023-12-08T01:48:37.042Z,91706.47
2023-12-08T01:51:07.915Z,91710.88
2023-12-08T01:53:36.573Z,91708.53
2023-12-08T01:56:06.710Z,91707.66
2023-12-08T01:58:35.387Z,91700.84
2023-12-08T02:01:06.924Z,91698.69
2023-12-08T02:03:36.227Z,91699.47
2023-12-08T02:06:07.143Z,91698.19
2023-12-08T02:08:35.927Z,91700.69
2023-12-08T02:11:23.256Z,91693.22
2023-12-08T02:14:14.751Z,91704.94
2023-12-08T02:17:08.040Z,91703.41
2023-12-08T02:19:56.715Z,91705.66
2023-12-08T02:22:45.696Z,91699.75
2023-12-08T02:25:34.576Z,91698.06
2023-12-08T02:28:21.955Z,91703.22
2023-12-08T02:31:13.862Z,91709.22
2023-12-08T02:34:03.026Z,91715.38
2023-12-08T02:36:52.935Z,91731.34
2023-12-08T02:39:41.274Z,91717.44
2023-12-08T02:42:29.879Z,91722.66
2023-12-08T02:45:17.252Z,91715.25
2023-12-08T02:48:05.224Z,91710.91
2023-12-08T02:50:52.591Z,91702.28
2023-12-08T02:53:39.426Z,91693.66
2023-12-08T02:56:26.782Z,91692.03
2023-12-08T02:59:15.500Z,91691.03
2023-12-08T03:02:02.750Z,91694.53
2023-12-08T03:04:49.960Z,91693.44
2023-12-08T03:07:37.268Z,91706.50
2023-12-08T03:10:24.558Z,91711.41
2023-12-08T03:13:12.022Z,91713.22
2023-12-08T03:16:00.652Z,91721.91
2023-12-08T03:18:48.276Z,91724.84
2023-12-08T03:21:35.446Z,91725.56
2023-12-08T03:24:22.224Z,91700.69
2023-12-08T03:27:09.475Z,91729.00
2023-12-08T03:29:56.668Z,91719.22
2023-12-08T03:32:45.629Z,91722.38
2023-12-08T03:35:32.652Z,91725.03
2023-12-08T03:38:19.987Z,91711.38
2023-12-08T03:41:07.481Z,91719.16
2023-12-08T03:43:54.645Z,91721.09
2023-12-08T03:46:45.086Z,91726.69
2023-12-08T03:49:33.930Z,91727.97
2023-12-08T03:52:21.305Z,91727.41
2023-12-08T03:55:09.170Z,91730.88
2023-12-08T03:57:56.280Z,91736.50
2023-12-08T04:00:44.079Z,91736.06
2023-12-08T04:03:31.640Z,91736.28
2023-12-08T04:06:20.416Z,91729.63
2023-12-08T04:09:08.620Z,91725.38
2023-12-08T04:11:56.038Z,91719.72
2023-12-08T04:14:45.151Z,91719.09
2023-12-08T04:17:33.052Z,91714.00
2023-12-08T04:20:20.835Z,91703.84
2023-12-08T04:23:09.464Z,91702.41
2023-12-08T04:25:58.672Z,91700.34
2023-12-08T04:28:46.800Z,91703.44
2023-12-08T04:31:33.580Z,91700.56
2023-12-08T04:34:21.150Z,91699.38
2023-12-08T04:36:50.021Z,91703.56
2023-12-08T04:39:20.035Z,91712.31
2023-12-08T04:41:50.159Z,91706.84
2023-12-08T04:44:19.464Z,91700.28
2023-12-08T04:46:48.048Z,91701.13
2023-12-08T04:49:16.764Z,91695.94
2023-12-08T04:51:45.692Z,91683.91
2023-12-08T04:54:14.437Z,91665.75
2023-12-08T04:56:44.427Z,91668.84
2023-12-08T04:59:12.988Z,91670.78
2023-12-08T05:01:41.538Z,91691.91
2023-12-08T05:04:10.068Z,91685.13
2023-12-08T05:06:38.873Z,91687.25
2023-12-08T05:09:07.450Z,91689.22
2023-12-08T05:11:36.255Z,91682.72
2023-12-08T05:14:06.276Z,91697.16
2023-12-08T05:16:34.831Z,91699.09
2023-12-08T05:19:03.502Z,91702.53
2023-12-08T05:21:32.834Z,91696.00
2023-12-08T05:24:01.373Z,91691.84
2023-12-08T05:26:30.389Z,91699.38
2023-12-08T05:28:59.125Z,91698.09
2023-12-08T05:31:29.530Z,91708.63
2023-12-08T05:33:58.402Z,91703.31
2023-12-08T05:36:27.340Z,91702.47
2023-12-08T05:38:55.935Z,91713.03
2023-12-08T05:41:24.469Z,91716.63
2023-12-08T05:43:53.214Z,91731.53
2023-12-08T05:46:21.747Z,91712.84
2023-12-08T05:48:51.801Z,91726.41
2023-12-08T05:51:20.628Z,91724.94
2023-12-08T05:53:49.238Z,91728.09
2023-12-08T05:56:18.067Z,91728.13
2023-12-08T05:58:46.590Z,91731.44
2023-12-08T06:01:17.794Z,91721.56
2023-12-08T06:03:46.424Z,91725.75
2023-12-08T06:06:16.638Z,91724.66
2023-12-08T06:08:45.237Z,91724.69
2023-12-08T06:11:13.803Z,91715.56
2023-12-08T06:13:43.079Z,91714.75
2023-12-08T06:16:12.558Z,91719.34
2023-12-08T06:18:41.290Z,91716.31
2023-12-08T06:21:09.981Z,91715.66
2023-12-08T06:23:39.944Z,91720.78
2023-12-08T06:26:08.834Z,91720.09
2023-12-08T06:28:37.340Z,91716.22
2023-12-08T06:31:06.651Z,91718.06
2023-12-08T06:33:35.327Z,91718.19
2023-12-08T06:36:05.831Z,91714.16
2023-12-08T06:38:35.035Z,91715.19
2023-12-08T06:41:06.390Z,91712.53
2023-12-08T06:43:35.020Z,91718.97
2023-12-08T06:46:03.823Z,91715.97
2023-12-08T06:48:32.479Z,91719.50
2023-12-08T06:51:01.153Z,91709.53
2023-12-08T06:53:29.748Z,91722.22
2023-12-08T06:55:58.331Z,91709.75
2023-12-08T06:58:28.214Z,91716.13
2023-12-08T07:00:56.870Z,91714.56
2023-12-08T07:03:26.244Z,91718.41
2023-12-08T07:05:55.070Z,91721.03
2023-12-08T07:08:23.625Z,91718.81
2023-12-08T07:10:52.207Z,91716.00
2023-12-08T07:13:21.855Z,91718.97
2023-12-08T07:15:52.047Z,91715.53
2023-12-08T07:18:20.994Z,91713.88
2023-12-08T07:20:49.677Z,91720.75
2023-12-08T07:23:18.291Z,91717.66
2023-12-08T07:25:46.954Z,91718.38
2023-12-08T07:28:15.495Z,91715.91
2023-12-08T07:30:44.216Z,91718.44
2023-12-08T07:33:14.336Z,91730.44
2023-12-08T07:35:43.142Z,91726.66
2023-12-08T07:38:11.718Z,91734.81
2023-12-08T07:40:40.273Z,91720.41
2023-12-08T07:43:08.801Z,91738.03
2023-12-08T07:45:37.365Z,91737.53
2023-12-08T07:48:06.929Z,91739.78
2023-12-08T07:50:37.361Z,91738.84
2023-12-08T07:53:08.984Z,91744.41
2023-12-08T07:55:37.578Z,91752.63
2023-12-08T07:58:06.177Z,91753.28
2023-12-08T08:00:35.077Z,91748.75
2023-12-08T08:03:03.942Z,91747.25
2023-12-08T08:05:32.716Z,91751.97
2023-12-08T08:08:03.950Z,91752.28
2023-12-08T08:10:32.962Z,91753.19
2023-12-08T08:13:01.494Z,91754.75
2023-12-08T08:15:30.282Z,91760.03
2023-12-08T08:18:00.288Z,91759.25
2023-12-08T08:20:29.479Z,91758.13
2023-12-08T08:22:58.958Z,91763.34
2023-12-08T08:25:30.489Z,91760.97
2023-12-08T08:28:01.427Z,91751.47
2023-12-08T08:30:31.017Z,91762.81
2023-12-08T08:32:59.647Z,91755.06
2023-12-08T08:35:28.330Z,91758.97
2023-12-08T08:37:57.086Z,91762.13
2023-12-08T08:40:26.177Z,91760.97
2023-12-08T08:42:56.170Z,91765.19
2023-12-08T08:45:24.709Z,91766.16
2023-12-08T08:47:53.706Z,91756.59
2023-12-08T08:50:23.579Z,91758.66
2023-12-08T08:52:52.318Z,91759.81
2023-12-08T08:55:20.958Z,91756.41
2023-12-08T08:57:49.564Z,91753.16
2023-12-08T09:00:22.083Z,91719.78
2023-12-08T09:02:53.260Z,91755.91
2023-12-08T09:05:22.594Z,91753.25
2023-12-08T09:07:51.534Z,91750.41
2023-12-08T09:10:20.334Z,91748.69
2023-12-08T09:12:50.079Z,91747.56
2023-12-08T09:15:20.259Z,91736.63
2023-12-08T09:17:48.917Z,91742.97
2023-12-08T09:20:17.689Z,91741.16
2023-12-08T09:22:47.292Z,91734.81
2023-12-08T09:25:15.916Z,91729.00
2023-12-08T09:27:44.696Z,91735.88
2023-12-08T09:30:14.468Z,91728.50
2023-12-08T09:32:44.556Z,91742.94
2023-12-08T09:35:13.223Z,91747.00
2023-12-08T09:37:41.910Z,91739.06
2023-12-08T09:40:13.783Z,91739.03
2023-12-08T09:42:48.767Z,91746.34
2023-12-08T09:45:17.528Z,91749.25
2023-12-08T09:47:54.729Z,91729.81
2023-12-08T09:50:24.192Z,91737.69
2023-12-08T09:52:55.480Z,91744.97
2023-12-08T09:55:25.179Z,91753.34
2023-12-08T09:57:55.767Z,91748.84
2023-12-08T10:00:24.826Z,91750.13
2023-12-08T10:02:54.856Z,91757.41
2023-12-08T10:05:23.845Z,91747.47
2023-12-08T10:07:53.542Z,91755.47
2023-12-08T10:10:23.212Z,91747.22
2023-12-08T10:12:51.703Z,91750.34
2023-12-08T10:15:20.324Z,91743.25
2023-12-08T10:17:52.336Z,91740.25
2023-12-08T10:20:23.997Z,91737.44
2023-12-08T10:22:54.670Z,91743.97
2023-12-08T10:25:25.443Z,91740.84
2023-12-08T10:27:56.118Z,91732.97
2023-12-08T10:30:27.746Z,91733.97
2023-12-08T10:32:57.029Z,91740.69
2023-12-08T10:35:27.160Z,91732.53
2023-12-08T10:37:55.757Z,91735.16
2023-12-08T10:40:24.422Z,91725.44
2023-12-08T10:42:53.034Z,91724.78
2023-12-08T10:45:22.494Z,91724.88
2023-12-08T10:47:52.255Z,91716.78
2023-12-08T10:50:22.934Z,91714.56
2023-12-08T10:52:53.660Z,91722.59
2023-12-08T10:55:22.618Z,91722.28
2023-12-08T10:57:55.878Z,91695.59
2023-12-08T11:00:27.808Z,91717.69
2023-12-08T11:02:58.815Z,91718.44
2023-12-08T11:05:33.838Z,91712.38
2023-12-08T11:08:06.182Z,91725.34
2023-12-08T11:10:39.249Z,91717.94
2023-12-08T11:13:11.565Z,91705.34
2023-12-08T11:15:46.004Z,91724.84
2023-12-08T11:18:25.502Z,91730.00
2023-12-08T11:20:55.014Z,91715.69
2023-12-08T11:23:25.527Z,91723.69
2023-12-08T11:26:04.519Z,91726.38
2023-12-08T11:28:44.725Z,91725.84
2023-12-08T11:31:21.470Z,91724.22
2023-12-08T11:33:58.320Z,91727.72
2023-12-08T11:36:30.451Z,91722.69
2023-12-08T11:39:00.469Z,91728.88
2023-12-08T11:41:34.288Z,91725.03
2023-12-08T11:44:09.190Z,91722.34
2023-12-08T11:46:38.009Z,91719.25
2023-12-08T11:49:07.777Z,91721.56
2023-12-08T11:51:39.390Z,91722.47
2023-12-08T11:54:09.322Z,91722.56
2023-12-08T11:56:47.472Z,91722.56
2023-12-08T11:59:24.469Z,91723.69
2023-12-08T12:01:53.218Z,91722.16
2023-12-08T12:04:21.829Z,91713.31
2023-12-08T12:06:53.761Z,91731.72
2023-12-08T12:09:23.991Z,91727.13
2023-12-08T12:11:57.375Z,91720.81
2023-12-08T12:14:29.549Z,91726.13
2023-12-08T12:16:58.724Z,91729.81
2023-12-08T12:19:27.629Z,91728.75
2023-12-08T12:21:56.255Z,91732.78
2023-12-08T12:24:26.200Z,91729.28
2023-12-08T12:26:56.023Z,91734.25
2023-12-08T12:29:25.372Z,91731.09
2023-12-08T12:31:55.813Z,91731.22
2023-12-08T12:34:24.389Z,91729.59
2023-12-08T12:36:53.010Z,91729.84
2023-12-08T12:39:21.611Z,91726.00
2023-12-08T12:41:51.713Z,91727.13
2023-12-08T12:44:20.259Z,91726.19
2023-12-08T12:46:49.228Z,91733.06
2023-12-08T12:49:18.247Z,91728.72
2023-12-08T12:51:46.907Z,91728.34
2023-12-08T12:54:15.991Z,91723.97
2023-12-08T12:56:52.504Z,91723.16
2023-12-08T12:59:21.043Z,91730.69
2023-12-08T13:01:49.895Z,91721.03
2023-12-08T13:04:18.496Z,91722.63
2023-12-08T13:06:47.343Z,91726.19
2023-12-08T13:09:30.391Z,91725.97
2023-12-08T13:12:00.742Z,91726.38
2023-12-08T13:14:29.299Z,91733.31
2023-12-08T13:16:59.709Z,91732.84
2023-12-08T13:19:28.383Z,91741.72
2023-12-08T13:21:57.186Z,91737.56
2023-12-08T13:24:25.771Z,91740.38
2023-12-08T13:26:54.483Z,91742.50
2023-12-08T13:29:24.490Z,91748.06
2023-12-08T13:31:53.333Z,91748.72
2023-12-08T13:34:22.123Z,91747.31
2023-12-08T13:36:51.298Z,91748.16
2023-12-08T13:39:19.949Z,91746.63
2023-12-08T13:41:49.404Z,91752.28
2023-12-08T13:44:18.219Z,91757.72
2023-12-08T13:46:48.213Z,91753.78
2023-12-08T13:49:16.968Z,91756.56
2023-12-08T13:51:46.595Z,91761.88
2023-12-08T13:54:15.285Z,91764.22
2023-12-08T13:56:43.883Z,91760.34
2023-12-08T13:59:12.837Z,91766.28
2023-12-08T14:01:41.816Z,91771.41
2023-12-08T14:04:11.951Z,91765.19
2023-12-08T14:06:40.700Z,91773.31
2023-12-08T14:09:11.638Z,91775.47
2023-12-08T14:11:40.349Z,91778.59
2023-12-08T14:14:08.923Z,91774.38
2023-12-08T14:16:37.564Z,91786.28
2023-12-08T14:19:05.357Z,91787.91
2023-12-08T14:21:36.498Z,91782.28
2023-12-08T14:24:05.552Z,91786.06
2023-12-08T14:26:34.375Z,91781.56
2023-12-08T14:29:02.932Z,91782.59
2023-12-08T14:31:31.836Z,91789.72
2023-12-08T14:34:01.166Z,91796.38
2023-12-08T14:36:30.324Z,91794.78
2023-12-08T14:39:00.406Z,91796.50
2023-12-08T14:41:30.090Z,91808.63
2023-12-08T14:44:00.431Z,91809.47
2023-12-08T14:46:28.990Z,91803.47
2023-12-08T14:48:57.844Z,91809.91
2023-12-08T14:51:27.021Z,91826.06
2023-12-08T14:53:57.610Z,91825.03
2023-12-08T14:56:28.836Z,91821.91
2023-12-08T14:58:57.679Z,91832.50
2023-12-08T15:01:26.951Z,91833.69
2023-12-08T15:03:55.630Z,91831.72
2023-12-08T15:06:24.251Z,91824.06
2023-12-08T15:08:53.416Z,91832.84
2023-12-08T15:11:23.618Z,91829.72
2023-12-08T15:13:53.972Z,91842.63
2023-12-08T15:16:22.804Z,91837.34
2023-12-08T15:18:51.472Z,91842.84
2023-12-08T15:21:23.134Z,91840.63
2023-12-08T15:23:58.078Z,91844.81
2023-12-08T15:26:27.931Z,91839.53
2023-12-08T15:28:57.864Z,91840.22
2023-12-08T15:31:26.475Z,91844.22
2023-12-08T15:33:56.759Z,91842.22
2023-12-08T15:36:25.671Z,91845.03
2023-12-08T15:38:54.373Z,91847.66
2023-12-08T15:41:23.036Z,91847.00
2023-12-08T15:43:51.789Z,91855.41
2023-12-08T15:46:21.757Z,91850.84
2023-12-08T15:48:50.746Z,91847.50
2023-12-08T15:51:19.513Z,91861.75
2023-12-08T15:53:48.172Z,91855.69
2023-12-08T15:56:16.938Z,91865.31
2023-12-08T15:58:45.482Z,91865.69
2023-12-08T16:01:19.585Z,91866.25
2023-12-08T16:03:49.632Z,91870.06
2023-12-08T16:06:20.052Z,91870.88
2023-12-08T16:08:48.685Z,91873.72
2023-12-08T16:11:26.416Z,91876.03
2023-12-08T16:13:55.447Z,91881.16
2023-12-08T16:16:24.589Z,91884.38
2023-12-08T16:18:54.690Z,91887.97
2023-12-08T16:21:25.274Z,91893.84
2023-12-08T16:23:54.314Z,91901.97
2023-12-08T16:26:23.148Z,91887.38
2023-12-08T16:28:52.028Z,91904.19
2023-12-08T16:31:20.741Z,91901.25
2023-12-08T16:33:49.365Z,91916.81
2023-12-08T16:36:19.918Z,91911.53
2023-12-08T16:38:48.985Z,91912.13
2023-12-08T16:41:17.626Z,91914.78
2023-12-08T16:43:46.355Z,91921.31
2023-12-08T16:46:15.028Z,91922.22
2023-12-08T16:48:44.201Z,91926.25
2023-12-08T16:51:12.916Z,91933.97
2023-12-08T16:53:42.923Z,91923.66
2023-12-08T16:56:11.681Z,91931.88
2023-12-08T16:58:40.182Z,91937.00
2023-12-08T17:01:08.809Z,91937.75
2023-12-08T17:03:37.439Z,91935.31
2023-12-08T17:06:06.866Z,91946.59
2023-12-08T17:08:35.612Z,91955.34
2023-12-08T17:11:06.288Z,91949.63
2023-12-08T17:13:34.820Z,91942.31
2023-12-08T17:16:03.371Z,91947.72
2023-12-08T17:18:32.103Z,91953.63
2023-12-08T17:21:01.491Z,91950.72
2023-12-08T17:23:30.168Z,91942.69
2023-12-08T17:25:59.736Z,91950.09
2023-12-08T17:28:29.655Z,91962.94
2023-12-08T17:30:59.454Z,91977.63
2023-12-08T17:33:28.139Z,91968.75
2023-12-08T17:35:57.013Z,91970.31
2023-12-08T17:38:25.814Z,91971.53
2023-12-08T17:40:54.570Z,91978.66
2023-12-08T17:43:24.485Z,91981.72
2023-12-08T17:45:54.413Z,91981.06
2023-12-08T17:48:23.124Z,91986.81
2023-12-08T17:50:52.146Z,91978.53
2023-12-08T17:53:21.432Z,91988.13
2023-12-08T17:55:49.942Z,91995.06
2023-12-08T17:58:18.788Z,91989.94
2023-12-08T18:00:47.374Z,91991.72
2023-12-08T18:03:19.904Z,92000.75
2023-12-08T18:05:48.614Z,92001.34
2023-12-08T18:08:17.375Z,91999.22
2023-12-08T18:10:45.886Z,92000.63
2023-12-08T18:13:14.435Z,92008.88
2023-12-08T18:15:43.207Z,92003.75
2023-12-08T18:18:12.168Z,92005.59
2023-12-08T18:20:42.721Z,92013.94
2023-12-08T18:23:13.204Z,92009.16
2023-12-08T18:25:41.934Z,92015.19
2023-12-08T18:28:29.485Z,92009.25
2023-12-08T18:30:59.539Z,92018.13
2023-12-08T18:33:28.145Z,92022.19
2023-12-08T18:35:58.160Z,92033.59
2023-12-08T18:38:27.181Z,92031.94
2023-12-08T18:40:55.941Z,92031.19
2023-12-08T18:43:24.516Z,92035.66
2023-12-08T18:45:53.281Z,92043.66
2023-12-08T18:48:21.920Z,92044.94
2023-12-08T18:50:50.623Z,92043.81
2023-12-08T18:53:20.549Z,92048.50
2023-12-08T18:55:49.141Z,92050.47
2023-12-08T18:58:18.132Z,92048.09
2023-12-08T19:00:46.764Z,92051.31
2023-12-08T19:03:15.618Z,92050.94
2023-12-08T19:05:44.236Z,92050.53
2023-12-08T19:08:12.851Z,92049.75
2023-12-08T19:10:42.968Z,92056.94
2023-12-08T19:13:11.690Z,92053.44
2023-12-08T19:15:40.346Z,92051.44
2023-12-08T19:18:09.589Z,92059.31
2023-12-08T19:20:42.151Z,92064.97
2023-12-08T19:23:11.261Z,92065.97
2023-12-08T19:25:41.052Z,92072.13
2023-12-08T19:28:11.309Z,92065.75
2023-12-08T19:30:40.074Z,92062.88
2023-12-08T19:33:08.864Z,92066.09
2023-12-08T19:35:37.863Z,92079.56
2023-12-08T19:38:06.438Z,92078.16
2023-12-08T19:40:35.217Z,92082.56
2023-12-08T19:43:04.022Z,92076.47
2023-12-08T19:45:33.956Z,92076.25
2023-12-08T19:48:02.916Z,92076.19
2023-12-08T19:50:32.467Z,92084.34
2023-12-08T19:53:01.278Z,92087.06
2023-12-08T19:55:29.861Z,92093.72
2023-12-08T19:57:58.426Z,92097.09
2023-12-08T20:00:27.074Z,92089.53
2023-12-08T20:02:57.084Z,92095.63
2023-12-08T20:05:25.777Z,92098.34
2023-12-08T20:07:54.323Z,92096.34
2023-12-08T20:10:24.010Z,92102.63
2023-12-08T20:12:52.557Z,92108.19
2023-12-08T20:15:27.685Z,92114.22
2023-12-08T20:17:58.830Z,92116.31
2023-12-08T20:20:27.711Z,92118.22
2023-12-08T20:22:56.256Z,92123.59
2023-12-08T20:25:24.813Z,92118.69
2023-12-08T20:27:53.644Z,92124.28
2023-12-08T20:30:22.244Z,92125.94
2023-12-08T20:32:51.309Z,92127.66
2023-12-08T20:35:21.427Z,92134.66
2023-12-08T20:37:49.977Z,92134.69
2023-12-08T20:40:18.920Z,92139.03
2023-12-08T20:42:47.646Z,92146.19
2023-12-08T20:45:16.804Z,92139.84
2023-12-08T20:47:45.755Z,92145.06
2023-12-08T20:50:16.455Z,92153.19
2023-12-08T20:52:46.401Z,92142.13
2023-12-08T20:55:15.024Z,92152.19
2023-12-08T20:57:43.642Z,92144.06
2023-12-08T21:00:12.820Z,92156.47
2023-12-08T21:02:41.374Z,92152.00
2023-12-08T21:05:10.433Z,92157.94
2023-12-08T21:07:40.419Z,92166.91
2023-12-08T21:10:11.139Z,92137.41
2023-12-08T21:12:39.907Z,92167.75
2023-12-08T21:15:10.678Z,92168.53
2023-12-08T21:17:40.245Z,92170.16
2023-12-08T21:20:10.975Z,92163.41
2023-12-08T21:22:41.209Z,92176.75
2023-12-08T21:25:13.744Z,92180.81
2023-12-08T21:27:42.905Z,92161.03
2023-12-08T21:30:11.997Z,92175.00
2023-12-08T21:32:40.591Z,92168.88
2023-12-08T21:35:10.492Z,92174.78
2023-12-08T21:37:39.747Z,92174.50
2023-12-08T21:40:10.844Z,92176.88
2023-12-08T21:42:44.766Z,92173.38
2023-12-08T21:45:13.932Z,92189.53
2023-12-08T21:47:42.709Z,92173.47
2023-12-08T21:50:11.937Z,92176.41
2023-12-08T21:52:40.443Z,92178.38
2023-12-08T21:55:10.940Z,92177.63
2023-12-08T21:57:39.565Z,92179.69
2023-12-08T22:00:11.048Z,92173.31
2023-12-08T22:02:39.948Z,92178.28
2023-12-08T22:05:09.564Z,92184.25
2023-12-08T22:07:38.459Z,92180.94
2023-12-08T22:10:09.564Z,92186.97
2023-12-08T22:12:39.629Z,92191.88
2023-12-08T22:15:09.660Z,92193.69
2023-12-08T22:17:38.226Z,92197.09
2023-12-08T22:20:09.040Z,92203.47
2023-12-08T22:22:37.627Z,92197.75
2023-12-08T22:25:07.549Z,92206.25
2023-12-08T22:27:36.152Z,92201.97
2023-12-08T22:30:08.491Z,92200.38
2023-12-08T22:32:37.591Z,92199.31
2023-12-08T22:35:07.669Z,92203.94
2023-12-08T22:37:36.264Z,92208.16
2023-12-08T22:40:05.426Z,92212.28
2023-12-08T22:42:33.968Z,92222.25
2023-12-08T22:45:02.612Z,92214.47
2023-12-08T22:47:32.856Z,92215.94
2023-12-08T22:50:03.106Z,92218.34
2023-12-08T22:52:32.548Z,92216.03
2023-12-08T22:55:01.377Z,92212.75
2023-12-08T22:57:29.970Z,92205.53
2023-12-08T22:59:58.547Z,92215.34
2023-12-08T23:02:27.331Z,92216.97
2023-12-08T23:04:57.510Z,92213.44
2023-12-08T23:07:26.092Z,92216.00
2023-12-08T23:09:54.978Z,92212.13
2023-12-08T23:12:23.585Z,92216.25
2023-12-08T23:14:52.272Z,92216.88
2023-12-08T23:17:21.456Z,92223.63
2023-12-08T23:19:49.979Z,92221.47
2023-12-08T23:22:19.890Z,92231.56
2023-12-08T23:24:48.664Z,92222.84
2023-12-08T23:27:17.356Z,92229.31
2023-12-08T23:29:46.192Z,92227.78
2023-12-08T23:32:15.032Z,92233.88
2023-12-08T23:34:44.000Z,92222.78
2023-12-08T23:37:12.690Z,92212.47
2023-12-08T23:39:42.666Z,92210.53
2023-12-08T23:42:11.311Z,92207.53
2023-12-08T23:44:40.029Z,92209.94
2023-12-08T23:47:09.450Z,92218.50
2023-12-08T23:49:38.386Z,92210.94
2023-12-08T23:52:08.538Z,92211.28
2023-12-08T23:54:37.418Z,92217.06
2023-12-08T23:57:07.743Z,92211.16
2023-12-08T23:59:36.315Z,92212.41
